Time;durP1;ratioP1;P1;durP2;ratioP2;P2;SDS_P1;SDS_P2;PMS_P1;PMS_P2;Temp;Humidity;BMP_temperature;BMP_pressure;BME280_temperature;BME280_humidity;BME280_pressure;Samples;Min_cycle;Max_cycle;Signal;HPM_P1;HPM_P2
2022/07/26 00:00:08;;;;;;;12.55;10.57;;;;;;;31.87;42.46;100602.75;4908466;29;20116;-78
2022/07/26 00:02:35;;;;;;;12.82;9.82;;;;;;;31.82;42.79;100595.34;4892854;29;20056;-79
2022/07/26 00:05:02;;;;;;;16.90;10.63;;;;;;;31.84;42.90;100606.06;4908004;29;20160;-79
2022/07/26 00:07:31;;;;;;;11.77;9.65;;;;;;;31.54;42.63;100549.34;4908554;29;20394;-79
2022/07/26 00:10:04;;;;;;;15.98;10.52;;;;;;;31.44;43.22;100550.19;4893062;29;20060;-79
2022/07/26 00:12:32;;;;;;;19.27;10.57;;;;;;;31.77;43.09;100606.34;4908664;29;20474;-81
2022/07/26 00:14:59;;;;;;;15.85;8.63;;;;;;;31.76;43.19;100604.72;4892502;29;20052;-81
2022/07/26 00:17:29;;;;;;;13.85;10.55;;;;;;;31.73;42.84;100606.09;4908621;29;20485;-79
2022/07/26 00:19:55;;;;;;;21.70;11.82;;;;;;;31.68;43.07;100602.53;4908335;29;20056;-80
2022/07/26 00:22:34;;;;;;;18.42;12.02;;;;;;;31.49;43.36;100561.97;4893281;29;20112;-79
2022/07/26 00:25:07;;;;;;;14.93;12.20;;;;;;;31.40;43.28;100554.56;4908648;29;20056;-82
2022/07/26 00:27:37;;;;;;;15.27;11.68;;;;;;;31.76;42.92;100592.91;4893648;29;20120;-79
2022/07/26 00:30:07;;;;;;;15.75;11.20;;;;;;;31.76;43.11;100603.88;4893074;29;20127;-79
2022/07/26 00:32:34;;;;;;;18.00;11.60;;;;;;;31.33;43.55;100534.78;4889044;29;20045;-80
2022/07/26 00:35:00;;;;;;;21.05;10.57;;;;;;;31.48;43.63;100570.44;4889302;29;20065;-80
2022/07/26 00:37:27;;;;;;;11.48;10.02;;;;;;;31.57;43.73;100579.78;4889758;29;20088;-79
2022/07/26 00:39:54;;;;;;;16.27;9.63;;;;;;;31.56;43.72;100572.66;4876419;29;20481;-79
2022/07/26 00:42:20;;;;;;;15.60;10.57;;;;;;;31.32;43.66;100555.09;4872445;29;20087;-80
2022/07/26 00:44:47;;;;;;;13.32;10.20;;;;;;;31.42;44.02;100594.34;4873355;29;20053;-79
2022/07/26 00:47:15;;;;;;;16.33;11.75;;;;;;;31.37;44.05;100613.50;4888631;29;20052;-80
2022/07/26 00:49:42;;;;;;;14.57;10.70;;;;;;;31.30;43.79;100578.13;4888411;29;20052;-79
2022/07/26 00:52:09;;;;;;;14.35;10.23;;;;;;;31.39;43.72;100594.03;4873190;29;20097;-79
2022/07/26 00:54:38;;;;;;;13.20;9.50;;;;;;;31.39;43.95;100594.03;4888824;29;20056;-80
2022/07/26 00:57:05;;;;;;;12.23;9.77;;;;;;;31.35;43.75;100601.97;4907138;29;20076;-81
2022/07/26 00:59:32;;;;;;;12.70;10.25;;;;;;;31.10;43.72;100575.41;4907216;29;20071;-80
2022/07/26 01:01:59;;;;;;;16.17;9.88;;;;;;;31.11;43.65;100566.06;4907275;29;20587;-80
2022/07/26 01:04:26;;;;;;;14.05;10.00;;;;;;;31.13;43.75;100576.78;4907188;29;20139;-80
2022/07/26 01:06:53;;;;;;;13.32;11.82;;;;;;;30.98;43.43;100544.69;4906991;29;20064;-80
2022/07/26 01:09:20;;;;;;;12.40;9.93;;;;;;;31.17;44.14;100589.66;4906984;29;20063;-80
2022/07/26 01:11:46;;;;;;;16.50;10.23;;;;;;;30.94;43.83;100544.41;4892896;29;20100;-80
2022/07/26 01:14:19;;;;;;;12.07;9.68;;;;;;;30.87;44.17;100549.34;4891662;29;20067;-80
2022/07/26 01:16:46;;;;;;;12.30;10.55;;;;;;;31.08;44.47;100589.38;4907042;29;20080;-80
2022/07/26 01:19:13;;;;;;;14.27;11.32;;;;;;;30.84;44.34;100534.25;4891246;29;20048;-79
2022/07/26 01:21:39;;;;;;;13.85;10.18;;;;;;;31.15;44.18;100589.09;4875268;29;20472;-79
2022/07/26 01:24:06;;;;;;;15.85;10.63;;;;;;;31.08;44.73;100581.16;4891348;29;20257;-79
2022/07/26 01:26:33;;;;;;;17.77;11.85;;;;;;;30.90;44.86;100547.97;4891134;29;20057;-79
2022/07/26 01:29:00;;;;;;;18.70;11.73;;;;;;;31.14;45.05;100586.63;4897923;29;20061;-79
2022/07/26 01:31:27;;;;;;;13.52;10.82;;;;;;;31.15;45.45;100572.66;4872080;29;20121;-79
2022/07/26 01:33:54;;;;;;;14.32;11.25;;;;;;;31.20;45.04;100563.59;4873340;29;20057;-78
2022/07/26 01:36:20;;;;;;;13.95;10.48;;;;;;;31.25;45.17;100583.63;4872346;29;20061;-79
2022/07/26 01:38:47;;;;;;;14.45;12.23;;;;;;;30.37;45.72;100449.56;4887758;29;20112;-80
2022/07/26 01:41:14;;;;;;;17.63;11.55;;;;;;;30.86;45.76;100532.06;4887627;29;20063;-80
2022/07/26 01:43:41;;;;;;;14.68;11.07;;;;;;;31.18;45.69;100577.59;4872146;29;20145;-80
2022/07/26 01:46:08;;;;;;;16.48;12.18;;;;;;;30.72;46.12;100505.47;4873262;29;20489;-80
2022/07/26 01:48:35;;;;;;;14.65;10.85;;;;;;;31.04;46.16;100560.03;4887352;29;20064;-81
2022/07/26 01:51:03;;;;;;;10.70;9.63;;;;;;;30.90;45.80;100528.78;4887623;29;20061;-80
2022/07/26 01:53:29;;;;;;;12.38;10.43;;;;;;;30.86;45.81;100521.13;4878706;29;20080;-80
2022/07/26 01:55:57;;;;;;;14.07;10.20;;;;;;;30.52;45.14;100470.66;4906178;29;20048;-81
2022/07/26 01:58:23;;;;;;;17.10;10.02;;;;;;;31.02;45.06;100554.00;4890756;29;20485;-79
2022/07/26 02:00:50;;;;;;;14.07;9.75;;;;;;;31.15;44.44;100556.22;4890525;29;20254;-80
2022/07/26 02:03:17;;;;;;;13.27;10.32;;;;;;;31.21;44.43;100565.25;4906181;29;20060;-80
2022/07/26 02:05:44;;;;;;;12.48;10.07;;;;;;;31.00;44.34;100548.81;4906056;29;20131;-80
2022/07/26 02:08:10;;;;;;;16.25;11.38;;;;;;;31.06;44.24;100560.59;4891945;29;20045;-80
2022/07/26 02:13:23;;;;;;;19.60;10.02;;;;;;;30.48;44.66;100480.50;4891815;29;20054;-80
2022/07/26 02:15:50;;;;;;;16.42;10.23;;;;;;;30.97;44.48;100559.47;4890451;29;20159;-80
2022/07/26 02:18:17;;;;;;;12.05;9.20;;;;;;;30.93;44.01;100548.25;4890203;29;20417;-80
2022/07/26 02:20:43;;;;;;;19.75;9.93;;;;;;;31.00;43.85;100556.22;4909146;29;20060;-79
2022/07/26 02:23:10;;;;;;;11.32;9.20;;;;;;;30.83;44.22;100540.84;4910180;29;20401;-80
2022/07/26 02:25:37;;;;;;;14.02;9.93;;;;;;;30.93;44.05;100569.38;4890618;29;20132;-80
2022/07/26 02:28:04;;;;;;;11.35;9.10;;;;;;;31.00;43.66;100578.16;4905857;29;20072;-80
2022/07/26 02:30:31;;;;;;;13.68;9.73;;;;;;;30.92;43.91;100579.47;4872259;29;20057;-79
2022/07/26 02:32:59;;;;;;;12.70;9.40;;;;;;;30.64;44.13;100539.72;4873269;29;20057;-78
2022/07/26 02:35:26;;;;;;;12.10;8.82;;;;;;;30.95;44.02;100587.19;4888031;29;20104;-81
2022/07/26 02:37:52;;;;;;;15.88;9.82;;;;;;;30.59;44.42;100543.25;4875581;29;20120;-80
2022/07/26 02:40:19;;;;;;;20.40;10.30;;;;;;;29.83;44.32;100417.91;4872449;29;20068;-80
2022/07/26 02:42:46;;;;;;;11.50;10.27;;;;;;;30.67;44.07;100548.19;4887190;29;20524;-80
2022/07/26 02:45:12;;;;;;;13.10;9.38;;;;;;;30.17;43.97;100478.53;4887100;29;20072;-80
2022/07/26 02:47:47;;;;;;;15.75;10.68;;;;;;;30.64;44.61;100576.13;4887327;29;20144;-80
2022/07/26 02:50:19;;;;;;;12.85;10.02;;;;;;;30.44;44.83;100562.41;4887067;29;20053;-79
2022/07/26 02:52:46;;;;;;;13.02;9.95;;;;;;;30.59;44.71;100567.91;4874403;29;20052;-80
2022/07/26 02:55:15;;;;;;;16.38;10.60;;;;;;;30.62;44.45;100569.28;4905787;29;20119;-79
2022/07/26 02:57:42;;;;;;;16.75;10.55;;;;;;;30.52;44.79;100566.53;4905924;29;20053;-79
2022/07/26 03:00:14;;;;;;;11.70;10.13;;;;;;;30.48;44.90;100579.09;4889836;29;20059;-77
2022/07/26 03:02:41;;;;;;;13.65;9.68;;;;;;;30.54;44.74;100580.78;4905454;29;20057;-81
2022/07/26 03:05:09;;;;;;;13.50;10.18;;;;;;;30.20;45.04;100542.84;4906391;29;20071;-79
2022/07/26 03:07:36;;;;;;;12.70;9.30;;;;;;;30.34;44.97;100565.94;4894778;29;20044;-79
2022/07/26 03:10:18;;;;;;;15.10;9.63;;;;;;;30.25;45.27;100575.75;4876052;29;20390;-79
2022/07/26 03:12:44;;;;;;;14.45;10.02;;;;;;;30.23;44.98;100577.91;4909103;29;20115;-79
2022/07/26 03:15:11;;;;;;;14.20;9.88;;;;;;;30.26;45.03;100585.59;4893310;29;20052;-79
2022/07/26 03:17:38;;;;;;;18.15;10.15;;;;;;;29.80;45.60;100530.63;4908702;29;20116;-78
2022/07/26 03:20:05;;;;;;;11.63;10.43;;;;;;;29.81;45.61;100538.59;4909143;29;20056;-79
2022/07/26 03:22:32;;;;;;;15.98;10.43;;;;;;;29.87;45.75;100558.56;4909190;29;20061;-80
2022/07/26 03:24:59;;;;;;;13.10;9.85;;;;;;;29.75;45.90;100544.28;4894723;29;20056;-79
2022/07/26 03:27:25;;;;;;;14.57;9.70;;;;;;;29.94;46.12;100586.53;4909191;29;20056;-78
2022/07/26 03:29:52;;;;;;;13.98;10.88;;;;;;;29.62;46.62;100561.97;4880209;29;20081;-78
2022/07/26 03:32:18;;;;;;;14.45;10.73;;;;;;;29.71;46.61;100584.19;4874326;29;20056;-79
2022/07/26 03:34:45;;;;;;;15.57;10.13;;;;;;;29.76;46.63;100563.19;4875492;29;20097;-80
2022/07/26 03:37:12;;;;;;;19.35;11.15;;;;;;;29.46;47.22;100563.78;4890174;29;20052;-79
2022/07/26 03:39:39;;;;;;;16.58;11.40;;;;;;;29.56;47.61;100595.84;4875169;29;20466;-79
2022/07/26 03:42:06;;;;;;;12.75;9.90;;;;;;;29.42;47.64;100592.75;4875537;29;20508;-79
2022/07/26 03:44:32;;;;;;;14.43;10.95;;;;;;;29.34;48.22;100604.16;4874432;29;20060;-80
2022/07/26 03:46:59;;;;;;;17.60;11.38;;;;;;;28.65;47.85;100471.84;4874262;29;20060;-79
2022/07/26 03:49:26;;;;;;;13.95;10.80;;;;;;;29.40;48.20;100614.06;4889551;29;20121;-79
2022/07/26 03:51:54;;;;;;;15.68;10.80;;;;;;;29.45;47.99;100616.81;4875384;29;20149;-78
2022/07/26 03:54:21;;;;;;;16.50;11.68;;;;;;;29.06;48.38;100553.34;4903029;29;20540;-79
2022/07/26 03:56:47;;;;;;;13.02;11.13;;;;;;;28.93;48.35;100549.09;4892738;29;20124;-79
2022/07/26 03:59:16;;;;;;;15.43;11.00;;;;;;;29.37;48.41;100611.81;4892813;29;20223;-79
2022/07/26 04:01:44;;;;;;;13.90;11.38;;;;;;;29.15;48.27;100590.03;4908591;29;20076;-78
2022/07/26 04:04:14;;;;;;;12.27;10.98;;;;;;;29.34;48.94;100626.84;4908471;29;20061;-79
2022/07/26 04:06:40;;;;;;;16.70;12.63;;;;;;;29.31;48.31;100601.94;4908278;29;20048;-78
2022/07/26 04:09:08;;;;;;;16.30;10.80;;;;;;;29.31;48.87;100629.28;4892365;29;20597;-79
2022/07/26 04:11:35;;;;;;;15.88;10.40;;;;;;;29.21;48.83;100605.41;4892193;29;20128;-79
2022/07/26 04:14:02;;;;;;;16.30;11.85;;;;;;;28.74;48.78;100538.56;4892483;29;20088;-79
2022/07/26 04:16:29;;;;;;;13.82;10.32;;;;;;;28.58;49.20;100525.84;4907582;29;20493;-79
2022/07/26 04:18:56;;;;;;;14.70;10.52;;;;;;;29.05;49.07;100607.16;4893480;29;20053;-78
2022/07/26 04:21:23;;;;;;;14.23;10.38;;;;;;;29.18;48.77;100603.22;4908272;29;20398;-78
2022/07/26 04:23:50;;;;;;;17.00;10.55;;;;;;;29.36;48.78;100621.13;4891527;29;20446;-78
2022/07/26 04:26:19;;;;;;;13.88;10.75;;;;;;;29.21;49.14;100631.94;4907784;29;20060;-79
2022/07/26 04:28:46;;;;;;;14.27;10.48;;;;;;;28.83;49.18;100570.88;4884396;29;20065;-79
2022/07/26 04:31:13;;;;;;;12.57;10.15;;;;;;;28.99;49.18;100602.72;4887906;29;20101;-79
2022/07/26 04:33:41;;;;;;;12.27;10.55;;;;;;;29.04;49.06;100610.97;4873785;29;20045;-79
2022/07/26 04:36:08;;;;;;;13.70;10.77;;;;;;;29.22;48.92;100625.38;4879385;29;20118;-79
2022/07/26 04:38:35;;;;;;;17.08;11.15;;;;;;;29.06;49.21;100618.94;4890789;29;20109;-80
2022/07/26 04:41:02;;;;;;;14.88;10.43;;;;;;;29.03;49.40;100620.28;4888794;29;20049;-78
2022/07/26 04:43:28;;;;;;;17.30;11.15;;;;;;;29.05;49.35;100626.28;4872971;29;20425;-79
2022/07/26 04:45:56;;;;;;;13.57;9.93;;;;;;;28.94;49.59;100621.81;4888348;29;20471;-78
2022/07/26 04:48:23;;;;;;;15.02;10.20;;;;;;;28.95;49.76;100628.91;4873639;29;20057;-81
2022/07/26 04:50:50;;;;;;;14.75;10.10;;;;;;;28.90;49.61;100605.09;4872815;29;20061;-78
2022/07/26 04:53:17;;;;;;;16.88;11.20;;;;;;;29.04;49.56;100610.97;4893930;29;20104;-78
2022/07/26 04:55:43;;;;;;;14.30;10.57;;;;;;;29.12;48.98;100610.53;4907128;29;20544;-78
2022/07/26 04:58:10;;;;;;;13.15;10.40;;;;;;;28.63;49.46;100555.94;4892701;29;20065;-78
2022/07/26 05:00:37;;;;;;;14.00;10.38;;;;;;;29.05;49.47;100612.63;4891338;29;20108;-78
2022/07/26 05:03:24;;;;;;;11.20;9.90;;;;;;;29.07;49.71;100623.31;4892131;29;20592;-78
2022/07/26 05:05:51;;;;;;;11.68;10.05;;;;;;;29.19;49.26;100627.53;4907613;29;20067;-79
2022/07/26 05:08:17;;;;;;;15.18;9.70;;;;;;;29.07;49.38;100610.47;4891607;29;20044;-79
2022/07/26 05:10:44;;;;;;;13.20;10.23;;;;;;;29.32;48.99;100628.19;4905158;29;20060;-79
2022/07/26 05:13:11;;;;;;;14.25;10.23;;;;;;;29.35;48.11;100619.50;4905513;29;20141;-79
2022/07/26 05:15:39;;;;;;;14.40;10.25;;;;;;;29.29;48.52;100623.25;4890345;29;20072;-79
2022/07/26 05:18:09;;;;;;;17.58;9.60;;;;;;;29.19;48.62;100619.34;4905634;29;20212;-78
2022/07/26 05:20:39;;;;;;;12.23;9.30;;;;;;;28.47;48.60;100513.16;4905573;29;20139;-78
2022/07/26 05:23:06;;;;;;;11.52;9.68;;;;;;;28.54;48.33;100502.88;4889986;29;20305;-80
2022/07/26 05:25:34;;;;;;;11.98;9.02;;;;;;;29.27;47.79;100607.09;4890432;29;20059;-80
2022/07/26 05:28:00;;;;;;;11.70;9.10;;;;;;;29.35;47.86;100628.50;4886044;29;20506;-79
2022/07/26 05:30:27;;;;;;;12.98;8.88;;;;;;;29.29;47.54;100615.88;4871160;29;20053;-80
2022/07/26 05:32:54;;;;;;;8.57;7.72;;;;;;;29.08;47.35;100584.81;4870887;29;20068;-79
2022/07/26 05:35:21;;;;;;;8.82;7.85;;;;;;;29.22;47.51;100595.31;4872642;29;20477;-79
2022/07/26 05:37:48;;;;;;;11.07;8.88;;;;;;;29.13;47.98;100587.59;4871389;29;20056;-79
2022/07/26 05:40:15;;;;;;;12.18;9.23;;;;;;;29.47;47.60;100619.28;4872247;29;20065;-79
2022/07/26 05:42:42;;;;;;;12.90;7.80;;;;;;;29.17;46.64;100553.16;4887595;29;20466;-79
2022/07/26 05:45:09;;;;;;;10.90;8.85;;;;;;;29.36;46.84;100597.34;4905463;29;20088;-79
2022/07/26 05:47:35;;;;;;;12.20;8.45;;;;;;;29.17;46.13;100539.50;4905578;29;20064;-80
2022/07/26 05:50:03;;;;;;;9.18;6.97;;;;;;;29.59;46.09;100598.88;4906978;29;20069;-78
2022/07/26 05:52:30;;;;;;;8.98;7.43;;;;;;;29.73;46.21;100618.41;4899149;29;20063;-80
2022/07/26 05:54:57;;;;;;;10.50;7.40;;;;;;;29.73;46.08;100634.00;4911467;29;20044;-82
2022/07/26 05:57:23;;;;;;;11.65;8.57;;;;;;;29.64;45.46;100594.50;4909479;29;20063;-80
2022/07/26 05:59:50;;;;;;;15.75;7.35;;;;;;;29.61;45.43;100593.97;4886554;29;20096;-80
2022/07/26 06:02:17;;;;;;;10.82;8.07;;;;;;;29.75;46.21;100629.91;4887299;29;20060;-80
2022/07/26 06:04:44;;;;;;;10.45;7.55;;;;;;;29.65;45.83;100598.91;4871979;29;20217;-81
2022/07/26 06:07:13;;;;;;;15.32;7.50;;;;;;;29.97;44.91;100632.50;4886717;29;20072;-79
2022/07/26 06:09:40;;;;;;;7.63;6.93;;;;;;;30.02;44.82;100632.53;4871431;29;20666;-79
2022/07/26 06:12:07;;;;;;;14.98;8.25;;;;;;;29.67;45.04;100591.31;4873317;29;20113;-80
2022/07/26 06:14:34;;;;;;;8.93;6.75;;;;;;;29.89;45.10;100635.75;4887163;29;20063;-79
2022/07/26 06:17:03;;;;;;;10.05;6.50;;;;;;;29.28;45.23;100517.72;4880581;29;20048;-79
2022/07/26 06:19:30;;;;;;;14.95;8.23;;;;;;;29.98;45.18;100622.41;4906065;29;20141;-80
2022/07/26 06:21:57;;;;;;;9.23;7.28;;;;;;;30.15;44.48;100627.72;4903024;29;20143;-81
2022/07/26 06:24:23;;;;;;;10.05;7.30;;;;;;;30.19;43.98;100604.16;4905235;29;20064;-80
2022/07/26 06:26:52;;;;;;;8.32;7.22;;;;;;;30.28;44.00;100618.19;4904284;29;20053;-78
2022/07/26 06:29:23;;;;;;;11.02;7.15;;;;;;;30.26;44.11;100623.94;4881348;29;20049;-79
2022/07/26 06:31:57;;;;;;;11.73;7.10;;;;;;;30.33;43.80;100616.31;4887212;29;20064;-80
2022/07/26 06:34:24;;;;;;;13.85;7.38;;;;;;;30.46;43.11;100625.94;4909157;29;20104;-79
2022/07/26 06:36:53;;;;;;;10.63;7.40;;;;;;;30.12;43.63;100581.69;4899514;29;20490;-79
2022/07/26 06:39:20;;;;;;;12.70;6.75;;;;;;;30.37;43.94;100619.34;4889406;29;20449;-79
2022/07/26 06:41:48;;;;;;;12.43;8.02;;;;;;;30.43;43.49;100619.06;4876242;29;20053;-77
2022/07/26 06:44:15;;;;;;;8.20;6.72;;;;;;;30.19;43.58;100574.03;4875276;29;20471;-79
2022/07/26 06:46:42;;;;;;;10.95;7.45;;;;;;;30.55;43.55;100623.50;4890181;29;20053;-77
2022/07/26 06:49:08;;;;;;;15.70;7.32;;;;;;;30.49;43.39;100603.50;4874336;29;20089;-79
2022/07/26 06:51:35;;;;;;;7.15;6.45;;;;;;;30.17;43.31;100551.59;4873427;29;20516;-80
2022/07/26 06:54:04;;;;;;;9.10;6.93;;;;;;;30.55;43.19;100615.28;4900802;29;20045;-80
2022/07/26 06:56:31;;;;;;;11.65;6.85;;;;;;;30.73;43.25;100633.97;4893377;29;20564;-78
2022/07/26 06:58:58;;;;;;;9.13;7.43;;;;;;;30.64;43.70;100616.41;4888066;29;20620;-79
2022/07/26 07:01:25;;;;;;;13.63;6.90;;;;;;;30.81;42.99;100606.03;4873893;29;20380;-80
2022/07/26 07:04:12;;;;;;;10.35;7.15;;;;;;;30.85;42.31;100593.47;4893856;29;20151;-78
2022/07/26 07:06:39;;;;;;;10.05;6.93;;;;;;;30.80;42.61;100614.50;4893795;29;20048;-80
2022/07/26 07:09:06;;;;;;;11.50;7.95;;;;;;;30.98;42.51;100616.78;4876788;29;20063;-79
2022/07/26 07:11:34;;;;;;;8.82;7.00;;;;;;;30.77;42.58;100593.97;4893228;29;20075;-79
2022/07/26 07:14:02;;;;;;;10.75;8.13;;;;;;;30.96;42.67;100627.19;4891899;29;20210;-79
2022/07/26 07:16:29;;;;;;;11.85;7.75;;;;;;;31.05;42.27;100624.75;4876646;29;20060;-79
2022/07/26 07:18:56;;;;;;;9.73;6.95;;;;;;;31.06;41.89;100604.44;4891624;29;20057;-78
2022/07/26 07:21:22;;;;;;;10.55;7.60;;;;;;;31.20;41.97;100618.44;4875481;29;20056;-79
2022/07/26 07:23:49;;;;;;;15.25;7.63;;;;;;;31.14;42.50;100609.38;4876108;29;20045;-79
2022/07/26 07:26:18;;;;;;;15.95;7.93;;;;;;;30.99;42.43;100598.41;4892875;29;20049;-79
2022/07/26 07:28:45;;;;;;;11.55;7.28;;;;;;;30.94;42.20;100577.31;4873137;29;20292;-80
2022/07/26 07:31:14;;;;;;;14.05;7.57;;;;;;;31.22;41.85;100617.06;4857860;29;20059;-80
2022/07/26 07:33:41;;;;;;;13.70;8.15;;;;;;;31.26;41.43;100595.41;4874047;29;20356;-80
2022/07/26 07:36:18;;;;;;;11.57;7.55;;;;;;;31.34;41.53;100614.06;4874728;29;20056;-78
2022/07/26 07:38:45;;;;;;;9.90;7.35;;;;;;;31.29;41.75;100612.16;4874780;29;20525;-78
2022/07/26 07:41:12;;;;;;;11.32;7.57;;;;;;;31.30;42.19;100607.47;4873784;29;20076;-79
2022/07/26 07:43:39;;;;;;;14.88;7.28;;;;;;;31.14;41.84;100581.16;4874658;29;20057;-80
2022/07/26 07:46:05;;;;;;;14.02;7.50;;;;;;;31.08;41.78;100563.88;4858973;29;20049;-80
2022/07/26 07:48:33;;;;;;;13.38;7.45;;;;;;;31.43;41.58;100617.09;4876286;29;20120;-79
2022/07/26 07:50:59;;;;;;;10.25;6.63;;;;;;;31.45;41.61;100603.94;4873778;29;20569;-79
2022/07/26 07:53:26;;;;;;;8.25;7.43;;;;;;;31.51;41.04;100597.34;4884152;29;20071;-79
2022/07/26 07:55:55;;;;;;;14.75;7.40;;;;;;;31.56;41.08;100597.34;4895917;29;20086;-79
2022/07/26 07:58:22;;;;;;;9.25;7.72;;;;;;;31.54;40.89;100591.31;4877019;29;20049;-79
2022/07/26 08:00:49;;;;;;;12.55;6.97;;;;;;;31.56;40.79;100589.13;4876442;29;20072;-79
2022/07/26 08:03:17;;;;;;;10.23;7.30;;;;;;;31.76;40.10;100592.91;4892606;29;20508;-80
2022/07/26 08:05:46;;;;;;;15.52;7.10;;;;;;;31.60;40.71;100581.94;4877795;29;20143;-80
2022/07/26 08:08:15;;;;;;;13.80;8.23;;;;;;;31.58;40.75;100584.19;4877658;29;20057;-79
2022/07/26 08:10:42;;;;;;;18.75;9.05;;;;;;;31.33;40.85;100532.88;4877573;29;20271;-79
2022/07/26 08:13:18;;;;;;;10.30;7.97;;;;;;;31.80;41.07;100594.81;4897341;29;20088;-79
2022/07/26 08:15:49;;;;;;;10.63;8.30;;;;;;;31.95;40.45;100594.00;4901432;29;20048;-80
2022/07/26 08:18:15;;;;;;;10.63;7.18;;;;;;;31.89;41.03;100586.81;4891225;29;20060;-79
2022/07/26 08:20:44;;;;;;;10.70;7.57;;;;;;;31.95;40.34;100563.78;4893212;29;20057;-77
2022/07/26 08:23:11;;;;;;;12.02;8.18;;;;;;;31.96;40.73;100589.31;4891295;29;20052;-78
2022/07/26 08:25:38;;;;;;;13.55;7.85;;;;;;;31.88;41.10;100568.72;4891378;29;20426;-79
2022/07/26 08:28:21;;;;;;;10.52;8.77;;;;;;;32.01;40.13;100595.59;4877964;29;20139;-77
2022/07/26 08:31:07;;;;;;;11.00;7.25;;;;;;;32.12;42.42;100599.16;4893539;29;20079;-78
2022/07/26 08:33:34;;;;;;;10.88;8.30;;;;;;;31.94;40.74;100595.03;4881161;29;20052;-78
2022/07/26 08:36:06;;;;;;;11.00;7.20;;;;;;;31.81;41.52;100568.19;4880443;29;20048;-77
2022/07/26 08:38:32;;;;;;;11.45;8.40;;;;;;;31.98;41.00;100598.91;4910847;29;20485;-78
2022/07/26 08:40:59;;;;;;;16.58;9.25;;;;;;;32.05;40.06;100596.69;4910522;29;20075;-79
2022/07/26 08:43:26;;;;;;;10.18;7.40;;;;;;;32.13;41.52;100609.00;4910293;29;20063;-77
2022/07/26 08:46:00;;;;;;;11.55;7.75;;;;;;;32.31;40.38;100604.84;4894652;29;20325;-79
2022/07/26 08:48:27;;;;;;;10.50;7.53;;;;;;;32.25;41.37;100562.00;4911433;29;20055;-78
2022/07/26 08:50:55;;;;;;;10.30;6.85;;;;;;;32.35;41.90;100606.72;4910199;29;20274;-78
2022/07/26 08:53:22;;;;;;;8.93;8.10;;;;;;;32.28;40.50;100566.94;4909838;29;20110;-78
2022/07/26 08:55:54;;;;;;;8.80;7.38;;;;;;;32.59;40.96;100605.28;4910036;29;20052;-77
2022/07/26 08:58:35;;;;;;;14.73;7.90;;;;;;;32.52;41.19;100595.41;4910202;29;20197;-78
2022/07/26 09:01:07;;;;;;;11.25;7.68;;;;;;;32.77;42.61;100601.88;4909976;29;20060;-79
2022/07/26 09:03:37;;;;;;;15.25;8.00;;;;;;;32.64;39.38;100607.97;4908521;29;20066;-78
2022/07/26 09:06:30;;;;;;;10.37;7.90;;;;;;;32.51;40.99;100603.94;4904568;29;20072;-78
2022/07/26 09:09:09;;;;;;;8.90;7.93;;;;;;;32.52;38.90;100600.91;4890738;29;20320;-78
2022/07/26 09:11:37;;;;;;;17.42;8.68;;;;;;;32.02;39.26;100525.03;4910979;29;20060;-78
2022/07/26 09:14:05;;;;;;;15.27;9.07;;;;;;;32.14;39.48;100553.81;4909603;29;20052;-78
2022/07/26 09:16:32;;;;;;;9.35;8.13;;;;;;;32.76;41.09;100589.22;4909372;29;20127;-78
2022/07/26 09:19:22;;;;;;;18.10;7.95;;;;;;;32.63;38.12;100567.88;4909347;29;20453;-78
2022/07/26 09:21:50;;;;;;;11.05;7.90;;;;;;;32.40;38.79;100559.19;4894203;29;20393;-78
2022/07/26 09:24:37;;;;;;;13.57;8.52;;;;;;;32.10;38.16;100525.28;4909474;29;20183;-77
2022/07/26 09:27:09;;;;;;;13.30;8.30;;;;;;;32.42;38.49;100565.22;4910894;29;20134;-78
2022/07/26 09:29:47;;;;;;;12.07;8.02;;;;;;;32.56;38.42;100591.00;4903869;29;20504;-78
2022/07/26 09:32:16;;;;;;;10.68;7.22;;;;;;;32.56;38.10;100588.25;4890627;29;20056;-78
2022/07/26 09:35:04;;;;;;;8.57;7.25;;;;;;;32.76;37.36;100605.72;4890497;29;20072;-78
2022/07/26 09:37:50;;;;;;;9.43;7.00;;;;;;;32.64;38.09;100602.50;4891048;29;20055;-77
2022/07/26 09:40:18;;;;;;;8.90;6.78;;;;;;;32.74;38.32;100585.94;4874992;29;20092;-77
2022/07/26 09:42:59;;;;;;;10.40;7.00;;;;;;;32.88;37.62;100608.09;4888136;29;20381;-77
2022/07/26 09:45:28;;;;;;;9.35;7.82;;;;;;;32.26;38.01;100503.22;4872224;29;20116;-78
2022/07/26 09:47:55;;;;;;;8.02;7.22;;;;;;;33.04;38.85;100608.84;4910159;29;20055;-78
2022/07/26 09:50:32;;;;;;;10.77;7.97;;;;;;;32.97;38.74;100590.72;4903306;29;20049;-78
2022/07/26 09:53:17;;;;;;;11.52;8.75;;;;;;;32.66;39.07;100531.56;4892014;29;20092;-79
2022/07/26 09:55:44;;;;;;;9.75;7.68;;;;;;;33.23;38.87;100612.53;4907035;29;20051;-79
2022/07/26 09:58:12;;;;;;;13.60;7.47;;;;;;;33.13;39.31;100560.38;4899103;29;20558;-78
2022/07/26 10:00:40;;;;;;;10.05;8.35;;;;;;;33.45;38.22;100611.25;4887134;29;20139;-78
2022/07/26 10:03:07;;;;;;;11.85;7.72;;;;;;;33.49;39.26;100618.63;4868831;29;20239;-79
2022/07/26 10:05:34;;;;;;;11.18;6.93;;;;;;;33.59;39.79;100595.72;4869347;29;20113;-79
2022/07/26 10:08:02;;;;;;;15.48;8.82;;;;;;;33.65;37.64;100605.59;4886739;29;20710;-78
2022/07/26 10:10:44;;;;;;;11.18;7.70;;;;;;;33.63;37.61;100616.06;4886237;29;20049;-79
2022/07/26 10:13:11;;;;;;;13.18;6.82;;;;;;;33.90;38.63;100606.44;4887389;29;20498;-77
2022/07/26 10:15:40;;;;;;;12.10;7.03;;;;;;;34.02;39.04;100615.91;4872596;29;20374;-78
2022/07/26 10:18:27;;;;;;;11.52;7.38;;;;;;;34.00;38.48;100600.78;4887072;29;20143;-78
2022/07/26 10:20:54;;;;;;;8.75;7.88;;;;;;;33.38;38.65;100598.66;4887202;29;20053;-78
2022/07/26 10:23:45;;;;;;;10.55;8.07;;;;;;;33.40;38.76;100585.44;4887019;29;20121;-80
2022/07/26 10:26:32;;;;;;;12.65;8.40;;;;;;;33.64;38.10;100609.44;4888427;29;20398;-78
2022/07/26 10:29:14;;;;;;;10.00;6.90;;;;;;;34.05;39.33;100601.53;4893950;29;20395;-79
2022/07/26 10:31:49;;;;;;;10.38;7.10;;;;;;;33.90;38.47;100578.91;4899559;29;20116;-77
2022/07/26 10:34:37;;;;;;;15.02;10.25;;;;;;;33.35;37.10;100557.13;4881700;29;20059;-79
2022/07/26 10:37:10;;;;;;;8.40;7.60;;;;;;;33.93;39.48;100614.91;4879857;29;20165;-78
2022/07/26 10:39:37;;;;;;;12.52;8.00;;;;;;;33.72;38.93;100589.56;4886287;29;20056;-79
2022/07/26 10:42:09;;;;;;;13.07;8.25;;;;;;;33.38;38.10;100523.56;4903685;29;20067;-80
2022/07/26 10:44:40;;;;;;;9.55;8.30;;;;;;;33.97;39.81;100607.72;4895896;29;20044;-80
2022/07/26 10:47:06;;;;;;;;;;;;;;;33.71;39.77;100598.91;4913273;29;20051;-81
2022/07/26 10:49:35;;;;;;;10.45;8.45;;;;;;;33.77;37.51;100595.00;4895279;29;20391;-78
2022/07/26 10:52:17;;;;;;;9.40;8.05;;;;;;;34.03;35.57;100591.94;4874782;29;20342;-79
2022/07/26 10:54:58;;;;;;;14.55;8.30;;;;;;;34.12;38.03;100592.97;4879260;29;20112;-78
2022/07/26 10:57:28;;;;;;;9.52;7.75;;;;;;;34.36;35.44;100592.94;4889991;29;20068;-79
2022/07/26 10:59:57;;;;;;;15.40;8.67;;;;;;;34.69;37.36;100590.31;4901741;29;20084;-79
2022/07/26 11:02:27;;;;;;;10.55;7.78;;;;;;;34.04;38.16;100464.16;4902153;29;20320;-79
2022/07/26 11:05:13;;;;;;;9.32;7.75;;;;;;;34.75;37.70;100597.38;4890509;29;20127;-79
2022/07/26 11:07:53;;;;;;;9.45;8.15;;;;;;;34.33;37.87;100592.72;4890183;29;20166;-80
2022/07/26 11:10:26;;;;;;;9.10;8.20;;;;;;;33.96;38.18;100588.72;4874091;29;20092;-79
2022/07/26 11:13:24;;;;;;;9.40;8.23;;;;;;;33.79;36.83;100545.97;4874759;29;20517;-79
2022/07/26 11:16:04;;;;;;;9.93;7.65;;;;;;;34.18;36.58;100536.72;4873926;29;20048;-78
2022/07/26 11:18:34;;;;;;;11.55;9.35;;;;;;;34.66;36.59;100564.16;4873962;29;20489;-79
2022/07/26 11:21:15;;;;;;;9.45;8.50;;;;;;;35.01;35.33;100563.88;4874138;29;20117;-78
2022/07/26 11:23:47;;;;;;;13.52;7.45;;;;;;;35.11;37.05;100569.25;4891569;29;20414;-79
2022/07/26 11:26:16;;;;;;;9.20;7.72;;;;;;;35.27;35.38;100572.56;4907044;29;20063;-80
2022/07/26 11:28:49;;;;;;;9.70;7.38;;;;;;;35.52;36.66;100574.06;4911904;29;20118;-79